This is the latest recevied weather packets stored in our database for station/object IW2LSY-11. If no packets are shown the sender has not sent any weather packets the latest 10 day(s).
| Time | Temp. | Humidity | Pressure | Rain* | Wind** | Luminosity | Snow |
|---|---|---|---|---|---|---|---|
| 1788489017 | 17.78° C | 77% | 1021.7 hPa | - | - | 548 W/m² | - |
| 1788488416 | 18.89° C | 70% | 1021.7 hPa | - | - | 548 W/m² | - |
| 1788487816 | 18.33° C | 73% | 1021.5 hPa | - | - | 549 W/m² | - |
| 1788487216 | 17.78° C | 74% | 1021.4 hPa | - | - | 549 W/m² | - |
| 1788486617 | 18.33° C | 72% | 1021.5 hPa | - | - | 550 W/m² | - |
| 1788486017 | 18.33° C | 75% | 1021.5 hPa | - | - | 550 W/m² | - |
| 1788484817 | 18.33° C | 75% | 1021.5 hPa | - | - | 551 W/m² | - |
| 1788484216 | 18.33° C | 75% | 1021.5 hPa | - | - | 551 W/m² | - |
| 1788483616 | 18.33° C | 75% | 1021.5 hPa | - | - | 552 W/m² | - |
| 1788483015 | 18.89° C | 71% | 1021.6 hPa | - | - | 553 W/m² | - |
| 1788482415 | 18.33° C | 78% | 1021.7 hPa | - | - | 554 W/m² | - |
| 1788481815 | 18.89° C | 72% | 1021.6 hPa | - | - | 554 W/m² | - |
| 1788481215 | 18.33° C | 74% | 1021.7 hPa | - | - | 555 W/m² | - |
| 1788480615 | 18.89° C | 73% | 1021.8 hPa | - | - | 555 W/m² | - |
| 1788479415 | 18.89° C | 75% | 1021.8 hPa | - | - | 556 W/m² | - |
| 1788478815 | 18.89° C | 75% | 1021.7 hPa | - | - | 556 W/m² | - |
| 1788478216 | 18.89° C | 74% | 1021.7 hPa | - | - | 558 W/m² | - |
| 1788477616 | 19.44° C | 70% | 1021.6 hPa | - | - | 558 W/m² | - |
| 1788477016 | 18.89° C | 74% | 1021.7 hPa | - | - | 558 W/m² | - |
| 1788476413 | 19.44° C | 70% | 1021.7 hPa | - | - | 559 W/m² | - |
| 1788475813 | 20° C | 67% | 1021.7 hPa | - | - | 559 W/m² | - |
| 1788475213 | 19.44° C | 69% | 1021.7 hPa | - | - | 559 W/m² | - |
| 1788474613 | 20° C | 70% | 1021.7 hPa | - | - | 560 W/m² | - |
| 1788474013 | 20° C | 69% | 1021.6 hPa | - | - | 561 W/m² | - |
| 1788473427 | 19.44° C | 70% | 1021.6 hPa | - | - | 561 W/m² | - |
* Rain since midnight (hover to see other rain measurements)
** Current wind speed in m/s (hover to see current wind gust speed)